Time;durP1;ratioP1;P1;durP2;ratioP2;P2;SDS_P1;SDS_P2;PMS_P1;PMS_P2;Temp;Humidity;BMP_temperature;BMP_pressure;BME280_temperature;BME280_humidity;BME280_pressure;Samples;Min_cycle;Max_cycle;Signal;HPM_P1;HPM_P2
2023/01/26 00:00:05;;;;;;;39.43;27.20;;;3.50;99.90;;;;;;5053150;28;20598;-70
2023/01/26 00:02:30;;;;;;;42.93;29.30;;;3.70;99.90;;;;;;5053018;28;20645;-69
2023/01/26 00:04:56;;;;;;;44.27;28.73;;;3.70;99.90;;;;;;5052996;28;20413;-69
2023/01/26 00:07:21;;;;;;;43.13;26.57;;;3.40;99.90;;;;;;5053009;28;20182;-69
2023/01/26 00:09:47;;;;;;;41.20;27.13;;;3.40;99.90;;;;;;5053487;28;20254;-69
2023/01/26 00:12:13;;;;;;;39.70;25.10;;;3.20;99.90;;;;;;5052775;28;20566;-70
2023/01/26 00:14:50;;;;;;;44.20;26.67;;;3.10;99.90;;;;;;5052750;28;20622;-70
2023/01/26 00:17:24;;;;;;;39.90;27.10;;;2.90;99.90;;;;;;5052643;28;20564;-70
2023/01/26 00:19:52;;;;;;;38.10;25.50;;;3.10;99.90;;;;;;5053020;28;20421;-71
2023/01/26 00:22:17;;;;;;;43.57;28.20;;;3.20;99.90;;;;;;5052535;28;21040;-70
2023/01/26 00:24:43;;;;;;;46.83;27.80;;;3.30;99.90;;;;;;5052782;28;20413;-70
2023/01/26 00:27:08;;;;;;;37.20;23.57;;;3.50;99.90;;;;;;5052699;28;20259;-70
2023/01/26 00:29:34;;;;;;;40.40;24.67;;;3.60;99.90;;;;;;5034589;28;20312;-70
2023/01/26 00:31:59;;;;;;;40.10;25.83;;;3.30;99.90;;;;;;5052500;28;20681;-70
2023/01/26 00:34:25;;;;;;;40.10;26.83;;;3.40;99.90;;;;;;5053183;28;20189;-70
2023/01/26 00:36:50;;;;;;;37.50;24.60;;;3.50;99.90;;;;;;5053223;28;20167;-70
2023/01/26 00:39:16;;;;;;;45.00;27.67;;;3.60;99.90;;;;;;5052627;28;20715;-70
2023/01/26 00:44:25;;;;;;;49.23;28.70;;;3.40;99.90;;;;;;5056293;28;20166;-70
2023/01/26 00:46:51;;;;;;;39.80;24.90;;;3.50;99.90;;;;;;5056242;28;20409;-70
2023/01/26 00:49:16;;;;;;;34.00;24.60;;;3.60;99.90;;;;;;5056588;28;20167;-70
2023/01/26 00:51:42;;;;;;;37.40;25.47;;;3.40;99.90;;;;;;5056299;28;20308;-70
2023/01/26 00:54:07;;;;;;;33.73;22.47;;;3.40;99.90;;;;;;5056311;28;20252;-70
2023/01/26 00:56:33;;;;;;;36.97;24.83;;;3.40;99.90;;;;;;5056359;28;20175;-70
2023/01/26 00:58:58;;;;;;;37.93;24.90;;;3.50;99.90;;;;;;5054380;28;20266;-70
2023/01/26 01:01:24;;;;;;;35.53;22.90;;;3.50;99.90;;;;;;5056322;28;20606;-70
2023/01/26 01:03:51;;;;;;;41.20;23.80;;;3.50;99.90;;;;;;5056038;28;20633;-70
2023/01/26 01:06:17;;;;;;;38.70;25.30;;;3.60;99.90;;;;;;5038146;28;20178;-70
2023/01/26 01:08:42;;;;;;;40.23;26.37;;;3.60;99.90;;;;;;5056107;28;20415;-70
2023/01/26 01:11:10;;;;;;;36.80;22.90;;;3.80;99.90;;;;;;5056256;28;20429;-70
2023/01/26 01:13:37;;;;;;;41.23;26.00;;;3.70;99.90;;;;;;5055405;28;20238;-70
2023/01/26 01:16:07;;;;;;;37.67;24.10;;;3.80;99.90;;;;;;5055881;28;20458;-70
2023/01/26 01:18:34;;;;;;;32.70;22.80;;;3.70;99.90;;;;;;5056517;28;20401;-70
2023/01/26 01:20:59;;;;;;;34.47;23.10;;;3.70;99.90;;;;;;5055922;28;20445;-70
2023/01/26 01:23:28;;;;;;;35.10;24.17;;;3.40;99.90;;;;;;5040050;28;20768;-70
2023/01/26 01:25:57;;;;;;;35.53;24.63;;;3.40;99.90;;;;;;5035780;28;20186;-70
2023/01/26 01:28:23;;;;;;;37.77;23.33;;;3.30;99.90;;;;;;5048863;28;20829;-70
2023/01/26 01:30:48;;;;;;;40.50;26.20;;;3.50;99.90;;;;;;5055756;28;20425;-70
2023/01/26 01:33:14;;;;;;;34.33;23.53;;;3.60;99.90;;;;;;5023663;28;20568;-70
2023/01/26 01:35:39;;;;;;;39.17;25.37;;;3.80;99.90;;;;;;5016176;28;20631;-70
2023/01/26 01:38:05;;;;;;;40.00;24.17;;;3.90;99.90;;;;;;5015776;28;20244;-70
2023/01/26 01:40:31;;;;;;;39.73;25.90;;;4.00;99.90;;;;;;5015889;28;20192;-70
2023/01/26 01:42:56;;;;;;;36.13;24.10;;;3.70;99.90;;;;;;5015288;28;20636;-70
2023/01/26 01:45:25;;;;;;;32.77;22.97;;;3.50;99.90;;;;;;5015653;28;20538;-70
2023/01/26 01:47:59;;;;;;;31.90;21.43;;;3.10;99.90;;;;;;5015525;28;20172;-70
2023/01/26 01:50:26;;;;;;;36.97;25.03;;;3.10;99.90;;;;;;5015666;28;20461;-70
2023/01/26 01:52:54;;;;;;;31.70;22.17;;;3.20;99.90;;;;;;5015631;28;20766;-70
2023/01/26 01:55:20;;;;;;;32.70;21.30;;;3.50;99.90;;;;;;5015175;28;20415;-70
2023/01/26 01:57:51;;;;;;;35.90;23.70;;;3.70;99.90;;;;;;5030477;28;20420;-70
2023/01/26 02:00:21;;;;;;;36.97;22.43;;;3.60;99.90;;;;;;5055260;28;20155;-70
2023/01/26 02:03:13;;;;;;;41.27;26.03;;;3.30;99.90;;;;;;5054889;28;20396;-70
2023/01/26 02:06:07;;;;;;;36.17;22.67;;;3.00;99.90;;;;;;5054933;28;20922;-70
2023/01/26 02:08:37;;;;;;;36.83;23.03;;;3.20;99.90;;;;;;5054846;28;20393;-70
2023/01/26 02:11:13;;;;;;;42.73;26.80;;;3.20;99.90;;;;;;5054751;28;20420;-70
2023/01/26 02:13:41;;;;;;;39.10;26.00;;;3.40;99.90;;;;;;5054601;28;20833;-70
2023/01/26 02:16:07;;;;;;;40.87;24.13;;;3.50;99.90;;;;;;5054746;28;20746;-70
2023/01/26 02:18:32;;;;;;;35.03;22.87;;;3.60;99.90;;;;;;5054692;28;20409;-70
2023/01/26 02:21:05;;;;;;;43.20;26.87;;;3.60;99.90;;;;;;5054484;28;20206;-71
2023/01/26 02:24:00;;;;;;;38.57;23.77;;;3.60;99.90;;;;;;5054835;28;20167;-70
2023/01/26 02:26:28;;;;;;;38.40;22.87;;;3.60;99.90;;;;;;5041153;28;20421;-70
2023/01/26 02:28:54;;;;;;;36.47;22.63;;;3.60;99.90;;;;;;5054112;28;20420;-69
2023/01/26 02:31:21;;;;;;;32.77;21.80;;;3.50;99.90;;;;;;5054393;28;20478;-70
2023/01/26 02:33:47;;;;;;;36.13;21.93;;;3.30;99.90;;;;;;5054621;28;20927;-70
2023/01/26 02:36:21;;;;;;;37.53;21.87;;;2.90;99.90;;;;;;5054306;28;20405;-70
2023/01/26 02:39:17;;;;;;;33.20;21.97;;;2.70;99.90;;;;;;5054300;28;20730;-70
2023/01/26 02:44:28;;;;;;;40.87;23.17;;;3.10;99.90;;;;;;5053894;28;20806;-70
2023/01/26 02:46:55;;;;;;;34.90;22.13;;;3.00;99.90;;;;;;5054704;28;20436;-68
2023/01/26 02:52:05;;;;;;;37.47;23.37;;;2.80;99.90;;;;;;5053906;28;20551;-69
2023/01/26 02:57:14;;;;;;;29.37;20.27;;;2.70;99.90;;;;;;5053804;28;20386;-71
2023/01/26 02:59:40;;;;;;;34.13;22.10;;;2.90;99.90;;;;;;5051841;28;20425;-69
2023/01/26 03:02:06;;;;;;;32.10;20.53;;;2.80;99.90;;;;;;5053884;28;20232;-69
2023/01/26 03:04:32;;;;;;;33.57;21.03;;;2.70;99.90;;;;;;5054381;28;20194;-69
2023/01/26 03:06:58;;;;;;;35.67;21.70;;;2.70;99.90;;;;;;5053798;28;20409;-69
2023/01/26 03:09:23;;;;;;;33.77;20.37;;;2.80;99.90;;;;;;5053759;28;20193;-69
2023/01/26 03:11:49;;;;;;;26.27;17.57;;;2.70;99.90;;;;;;5053715;28;20269;-69
2023/01/26 03:14:15;;;;;;;30.87;20.43;;;2.80;99.90;;;;;;5053128;28;20217;-69
2023/01/26 03:16:40;;;;;;;31.60;19.57;;;2.70;99.90;;;;;;5035808;28;20175;-69
2023/01/26 03:27:26;;;;;;;35.53;20.60;;;2.90;99.90;;;;;;5033760;28;20436;-70
2023/01/26 03:29:52;;;;;;;29.53;18.30;;;2.80;99.90;;;;;;5042244;28;20421;-69
2023/01/26 03:32:18;;;;;;;32.93;20.60;;;2.80;99.90;;;;;;5053291;28;20428;-70
2023/01/26 03:34:43;;;;;;;32.50;20.03;;;3.10;99.90;;;;;;5053273;28;20813;-69
2023/01/26 03:37:10;;;;;;;30.00;18.83;;;3.30;99.90;;;;;;5053345;28;20637;-70
2023/01/26 03:56:20;;;;;;;28.00;17.40;;;3.10;99.90;;;;;;5053838;28;20447;-69
2023/01/26 03:58:48;;;;;;;30.77;18.47;;;3.30;99.90;;;;;;5052282;28;20783;-69
2023/01/26 04:01:20;;;;;;;31.50;19.40;;;3.40;99.90;;;;;;5052531;28;21008;-69
2023/01/26 04:09:20;;;;;;;36.00;20.80;;;3.30;99.90;;;;;;5053593;28;20377;-69
2023/01/26 04:11:46;;;;;;;27.57;17.13;;;3.30;99.90;;;;;;5052844;28;20432;-69
2023/01/26 04:22:27;;;;;;;35.40;20.13;;;3.30;99.90;;;;;;5057128;28;20424;-69
2023/01/26 04:24:53;;;;;;;27.83;17.10;;;3.20;99.90;;;;;;5056803;28;20794;-69
2023/01/26 04:27:19;;;;;;;29.73;18.90;;;3.30;99.90;;;;;;5056810;28;20187;-69
2023/01/26 04:29:45;;;;;;;30.07;20.30;;;3.20;99.90;;;;;;5056431;28;20458;-69
2023/01/26 04:32:10;;;;;;;35.33;20.47;;;3.10;99.90;;;;;;5056784;28;20187;-70
2023/01/26 04:34:36;;;;;;;34.97;20.20;;;3.30;99.90;;;;;;5057329;28;20194;-69
2023/01/26 04:37:02;;;;;;;28.27;17.00;;;3.30;99.90;;;;;;5057106;28;20163;-69
2023/01/26 04:39:27;;;;;;;28.70;18.37;;;3.10;99.90;;;;;;5057018;28;20224;-69
2023/01/26 04:41:53;;;;;;;25.70;17.37;;;2.80;99.90;;;;;;5056719;28;20183;-69
2023/01/26 04:44:18;;;;;;;29.80;19.40;;;2.80;99.90;;;;;;5056866;28;20262;-69
2023/01/26 04:46:46;;;;;;;22.60;15.93;;;3.10;99.90;;;;;;5056331;28;20194;-69
2023/01/26 04:49:11;;;;;;;31.70;17.97;;;3.20;99.90;;;;;;5056671;28;20249;-70
2023/01/26 04:51:37;;;;;;;26.53;17.33;;;3.20;99.90;;;;;;5056919;28;20500;-69
2023/01/26 04:54:02;;;;;;;24.80;15.40;;;2.70;99.90;;;;;;5056586;28;20202;-69
2023/01/26 04:56:31;;;;;;;22.67;15.10;;;2.40;99.90;;;;;;5056457;28;20257;-69
2023/01/26 04:58:59;;;;;;;22.80;15.60;;;2.30;99.90;;;;;;5057901;28;20171;-70
2023/01/26 05:01:25;;;;;;;28.73;16.97;;;2.30;99.90;;;;;;5062738;28;20428;-70
2023/01/26 05:03:51;;;;;;;32.87;19.20;;;2.30;99.90;;;;;;5063249;28;20432;-70
2023/01/26 05:06:17;;;;;;;26.57;16.90;;;2.50;99.90;;;;;;5063228;28;20479;-70
2023/01/26 05:08:43;;;;;;;32.07;18.60;;;2.40;99.90;;;;;;5063986;28;20981;-70
2023/01/26 05:11:08;;;;;;;27.00;17.77;;;2.30;99.90;;;;;;5062999;28;20201;-70
2023/01/26 05:13:34;;;;;;;31.50;19.00;;;2.60;99.90;;;;;;5065447;28;20198;-70
2023/01/26 05:16:01;;;;;;;31.93;20.07;;;2.80;99.90;;;;;;5052199;28;20469;-70
2023/01/26 05:18:27;;;;;;;24.93;16.67;;;2.50;99.90;;;;;;5044174;28;20449;-70
2023/01/26 05:20:54;;;;;;;29.53;18.40;;;2.40;99.90;;;;;;5042916;28;20433;-70
2023/01/26 05:23:19;;;;;;;32.23;19.10;;;2.50;99.90;;;;;;5039556;28;20413;-69
2023/01/26 05:25:45;;;;;;;27.23;18.50;;;2.50;99.90;;;;;;5040916;28;20750;-69
2023/01/26 05:28:10;;;;;;;34.73;20.87;;;2.60;99.90;;;;;;5034833;28;20197;-69
2023/01/26 05:30:36;;;;;;;30.53;17.70;;;2.60;99.90;;;;;;5034117;28;20210;-70
2023/01/26 05:33:03;;;;;;;34.87;20.10;;;2.30;99.90;;;;;;5056327;28;20162;-70
2023/01/26 05:35:29;;;;;;;31.53;19.43;;;2.20;99.90;;;;;;5057107;28;20581;-71
2023/01/26 05:37:55;;;;;;;28.93;18.63;;;2.30;99.90;;;;;;5056590;28;20415;-70
2023/01/26 05:40:21;;;;;;;29.37;17.07;;;2.40;99.90;;;;;;5029857;28;20178;-70
2023/01/26 05:42:47;;;;;;;26.90;17.40;;;2.40;99.90;;;;;;5017560;28;20410;-70
2023/01/26 05:45:12;;;;;;;27.93;17.87;;;2.40;99.90;;;;;;5016011;28;20407;-69
2023/01/26 05:47:38;;;;;;;26.80;15.63;;;2.10;99.90;;;;;;5015701;28;20635;-69
2023/01/26 05:50:05;;;;;;;26.60;16.90;;;2.00;99.90;;;;;;4998020;28;20172;-70
2023/01/26 05:52:30;;;;;;;25.13;18.10;;;2.00;99.90;;;;;;5015618;28;20552;-70
2023/01/26 05:54:56;;;;;;;24.77;15.73;;;2.10;99.90;;;;;;5015704;28;20447;-70
2023/01/26 05:57:21;;;;;;;29.47;18.60;;;2.20;99.90;;;;;;5015682;28;20168;-70
2023/01/26 05:59:47;;;;;;;26.33;17.67;;;2.10;99.90;;;;;;5032788;28;20189;-70
2023/01/26 06:02:13;;;;;;;26.13;16.67;;;2.00;99.90;;;;;;5055115;28;20604;-70
2023/01/26 06:04:38;;;;;;;30.00;18.17;;;2.20;99.90;;;;;;5053668;28;20237;-70
2023/01/26 06:07:04;;;;;;;28.60;17.50;;;2.30;99.90;;;;;;5054923;28;20198;-70
2023/01/26 06:09:29;;;;;;;22.80;15.73;;;2.30;99.90;;;;;;5055067;28;20167;-70
2023/01/26 06:11:56;;;;;;;25.00;16.63;;;2.10;99.90;;;;;;5054981;28;20574;-70
2023/01/26 06:14:22;;;;;;;23.23;14.83;;;2.20;99.90;;;;;;5054922;28;20182;-71
2023/01/26 06:16:47;;;;;;;27.13;17.33;;;2.10;99.90;;;;;;5055330;28;20393;-70
2023/01/26 06:19:13;;;;;;;25.43;15.47;;;1.90;99.90;;;;;;5055050;28;20520;-71
2023/01/26 06:21:39;;;;;;;24.33;16.43;;;2.20;99.90;;;;;;5055591;28;20443;-70
2023/01/26 06:24:05;;;;;;;24.73;15.80;;;2.20;99.90;;;;;;5055241;28;20171;-70
2023/01/26 06:26:31;;;;;;;23.03;15.33;;;2.30;99.90;;;;;;5055040;28;20171;-70
2023/01/26 06:28:56;;;;;;;22.73;15.77;;;2.40;99.90;;;;;;5054760;28;20770;-70
2023/01/26 06:31:23;;;;;;;25.50;16.33;;;2.30;99.90;;;;;;5054231;28;20252;-70
2023/01/26 06:33:49;;;;;;;27.00;18.60;;;2.30;99.90;;;;;;5054588;28;20213;-70
2023/01/26 06:36:15;;;;;;;31.50;19.20;;;2.10;99.90;;;;;;5054053;28;20414;-69
2023/01/26 06:38:46;;;;;;;27.77;16.37;;;2.20;99.90;;;;;;5036506;28;20935;-69
2023/01/26 06:41:12;;;;;;;28.90;18.20;;;2.00;99.90;;;;;;5054304;28;20258;-69
2023/01/26 06:43:38;;;;;;;24.57;15.90;;;1.90;99.90;;;;;;5036919;28;20433;-69
2023/01/26 06:46:05;;;;;;;32.00;19.60;;;2.10;99.90;;;;;;5054001;28;20175;-69
2023/01/26 06:48:33;;;;;;;32.40;19.77;;;2.20;99.90;;;;;;5054458;28;20171;-69
2023/01/26 06:51:30;;;;;;;25.67;18.03;;;2.10;99.90;;;;;;5053920;28;20959;-68
2023/01/26 06:53:57;;;;;;;27.73;17.67;;;2.10;99.90;;;;;;5054013;28;20492;-69
2023/01/26 06:56:23;;;;;;;26.90;16.57;;;1.80;99.90;;;;;;5053973;28;20401;-69
2023/01/26 06:58:49;;;;;;;24.47;17.47;;;1.80;99.90;;;;;;5054009;28;20416;-69
2023/01/26 07:01:21;;;;;;;30.10;19.03;;;1.90;99.90;;;;;;5035793;28;20429;-69
2023/01/26 07:03:47;;;;;;;24.23;15.87;;;2.00;99.90;;;;;;5054090;28;20167;-69
2023/01/26 07:06:13;;;;;;;21.50;15.77;;;2.20;99.90;;;;;;5052131;28;20563;-70
2023/01/26 07:08:39;;;;;;;27.97;17.03;;;2.30;99.90;;;;;;5053766;28;20873;-69
2023/01/26 07:11:05;;;;;;;24.47;16.10;;;2.30;99.90;;;;;;5050762;28;20782;-69
2023/01/26 07:13:31;;;;;;;21.20;14.83;;;2.20;99.90;;;;;;5033454;28;20194;-69
2023/01/26 07:16:09;;;;;;;31.93;19.50;;;2.10;99.90;;;;;;5033741;28;20402;-69
2023/01/26 07:18:36;;;;;;;30.27;18.53;;;2.30;99.90;;;;;;5033653;28;20712;-70
2023/01/26 07:21:06;;;;;;;24.90;16.50;;;2.40;99.90;;;;;;5032959;28;20452;-70
2023/01/26 07:23:31;;;;;;;27.80;18.83;;;2.30;99.90;;;;;;5033659;28;20386;-70
2023/01/26 07:25:58;;;;;;;25.20;17.93;;;2.20;99.90;;;;;;5015471;28;21047;-70
2023/01/26 07:28:24;;;;;;;26.10;16.50;;;2.10;99.90;;;;;;5034323;28;20175;-70
2023/01/26 07:30:50;;;;;;;27.90;17.43;;;2.00;99.90;;;;;;5032482;28;20449;-70
2023/01/26 07:33:17;;;;;;;26.00;17.50;;;2.10;99.90;;;;;;5015540;28;20822;-70
2023/01/26 07:35:43;;;;;;;27.37;16.90;;;2.10;99.90;;;;;;5017437;28;20949;-70
2023/01/26 07:38:08;;;;;;;28.57;18.20;;;2.10;99.90;;;;;;5053129;28;20405;-70
2023/01/26 07:40:34;;;;;;;25.23;16.27;;;2.10;99.90;;;;;;5053047;28;20197;-69
2023/01/26 07:42:59;;;;;;;25.03;16.97;;;2.00;99.90;;;;;;5053408;28;20249;-69
2023/01/26 07:45:26;;;;;;;26.30;15.67;;;2.10;99.90;;;;;;5053083;28;20219;-71
2023/01/26 07:47:55;;;;;;;34.70;24.10;;;2.20;99.90;;;;;;5053007;28;20215;-70
2023/01/26 07:50:21;;;;;;;26.83;17.37;;;1.90;99.90;;;;;;5052631;28;20491;-71
2023/01/26 07:52:47;;;;;;;24.40;15.70;;;2.10;99.90;;;;;;5052409;28;20485;-71
2023/01/26 07:55:13;;;;;;;23.10;15.20;;;2.30;99.90;;;;;;5052835;28;20986;-71
2023/01/26 07:57:39;;;;;;;20.83;15.47;;;2.40;99.90;;;;;;5053178;28;20899;-71
2023/01/26 08:00:06;;;;;;;21.23;14.57;;;2.40;99.90;;;;;;5052577;28;20474;-69
2023/01/26 08:02:32;;;;;;;25.20;16.97;;;2.30;99.90;;;;;;5051234;28;20884;-70
2023/01/26 08:04:58;;;;;;;22.37;15.50;;;2.40;99.90;;;;;;5050900;28;20455;-70
2023/01/26 08:07:24;;;;;;;22.90;15.60;;;2.50;99.90;;;;;;5052944;28;20210;-70
2023/01/26 08:09:50;;;;;;;20.33;14.23;;;2.50;99.90;;;;;;5052769;28;20491;-70
2023/01/26 08:12:16;;;;;;;22.40;14.80;;;2.50;99.90;;;;;;5052706;28;20190;-70
2023/01/26 08:14:42;;;;;;;20.47;15.27;;;2.40;99.90;;;;;;5053102;28;20194;-70
2023/01/26 08:17:07;;;;;;;22.80;15.03;;;2.20;99.90;;;;;;5053017;28;20407;-71
2023/01/26 08:19:33;;;;;;;18.00;13.40;;;2.10;99.90;;;;;;5052706;28;20213;-70
2023/01/26 08:21:58;;;;;;;21.27;14.90;;;1.90;99.90;;;;;;5052102;28;20205;-69
2023/01/26 08:24:25;;;;;;;21.53;14.77;;;2.10;99.90;;;;;;5052636;28;20162;-70
2023/01/26 08:26:50;;;;;;;18.50;13.47;;;2.20;99.90;;;;;;5052567;28;20186;-69
2023/01/26 08:29:17;;;;;;;23.70;16.70;;;2.30;99.90;;;;;;5053514;28;20420;-69
2023/01/26 08:31:42;;;;;;;24.13;15.87;;;2.40;99.90;;;;;;5052790;28;20565;-69
2023/01/26 08:34:08;;;;;;;22.70;14.73;;;2.40;99.90;;;;;;5052806;28;20440;-70
2023/01/26 08:36:33;;;;;;;20.33;13.90;;;2.50;99.90;;;;;;5052320;28;20163;-70
2023/01/26 08:38:59;;;;;;;17.33;12.33;;;2.80;99.90;;;;;;5052700;28;20670;-70
2023/01/26 08:41:24;;;;;;;19.20;13.50;;;2.90;99.90;;;;;;5052812;28;20218;-69
2023/01/26 08:43:51;;;;;;;17.07;12.43;;;2.80;99.90;;;;;;5053033;28;20179;-70
2023/01/26 08:46:17;;;;;;;20.87;13.73;;;2.80;99.90;;;;;;5052843;28;20167;-70
2023/01/26 08:48:42;;;;;;;17.40;12.83;;;2.80;99.90;;;;;;5052708;28;20420;-70
2023/01/26 08:51:08;;;;;;;18.40;13.37;;;2.90;99.90;;;;;;5033863;28;20195;-69
2023/01/26 08:53:35;;;;;;;18.30;12.20;;;2.70;99.90;;;;;;5052468;28;20237;-71
2023/01/26 08:56:04;;;;;;;15.47;11.30;;;2.90;99.90;;;;;;5052383;28;20604;-69
2023/01/26 08:58:31;;;;;;;14.10;10.47;;;2.80;99.90;;;;;;5052215;28;20397;-68
2023/01/26 09:00:57;;;;;;;16.20;11.00;;;2.60;99.90;;;;;;5052594;28;20425;-70
2023/01/26 09:03:23;;;;;;;15.20;9.90;;;2.60;99.90;;;;;;5054252;28;20454;-69
2023/01/26 09:05:48;;;;;;;16.00;11.30;;;2.60;99.90;;;;;;5054271;28;20702;-70
2023/01/26 09:08:14;;;;;;;15.90;10.90;;;2.30;99.90;;;;;;5055823;28;20159;-70
2023/01/26 09:10:41;;;;;;;15.03;11.17;;;2.50;99.90;;;;;;5055839;28;20183;-70
2023/01/26 09:13:08;;;;;;;16.40;12.57;;;2.60;99.90;;;;;;5056169;28;20177;-70
2023/01/26 09:15:37;;;;;;;18.80;12.67;;;2.50;99.90;;;;;;5055939;28;20980;-69
2023/01/26 09:18:02;;;;;;;15.53;11.20;;;2.20;99.90;;;;;;5056043;28;20454;-69
2023/01/26 09:20:28;;;;;;;19.10;11.90;;;2.20;99.90;;;;;;5048089;28;20548;-69
2023/01/26 09:22:53;;;;;;;22.17;14.30;;;2.20;99.90;;;;;;5035914;28;20161;-69
2023/01/26 09:25:19;;;;;;;20.03;13.67;;;2.20;99.90;;;;;;5035614;28;20183;-70
2023/01/26 09:27:44;;;;;;;20.97;12.37;;;2.40;99.90;;;;;;5035971;28;20194;-70
2023/01/26 09:30:10;;;;;;;20.27;13.43;;;2.40;99.90;;;;;;5035543;28;20515;-69
2023/01/26 09:32:36;;;;;;;16.17;11.60;;;2.40;99.90;;;;;;5035866;28;20564;-69
2023/01/26 09:35:01;;;;;;;20.97;13.47;;;2.40;99.90;;;;;;5039168;28;21033;-70
2023/01/26 09:37:27;;;;;;;15.50;11.40;;;2.50;99.90;;;;;;5050709;28;20202;-69
2023/01/26 09:39:53;;;;;;;16.43;11.00;;;2.40;99.90;;;;;;5017023;28;20168;-69
2023/01/26 09:42:41;;;;;;;13.37;9.57;;;2.20;99.90;;;;;;5016029;28;20242;-70
2023/01/26 09:45:12;;;;;;;14.20;10.17;;;2.40;99.90;;;;;;5015919;28;20810;-70
2023/01/26 09:48:23;;;;;;;19.30;11.33;;;2.50;99.90;;;;;;5015506;28;20407;-69
2023/01/26 09:51:00;;;;;;;16.73;11.80;;;2.50;99.90;;;;;;4979362;28;20470;-70
2023/01/26 09:54:00;;;;;;;15.23;10.83;;;2.50;99.90;;;;;;5015737;28;20759;-70
2023/01/26 09:56:29;;;;;;;14.27;10.43;;;2.50;99.90;;;;;;5015367;28;20399;-70
2023/01/26 09:59:05;;;;;;;14.03;9.80;;;2.40;99.90;;;;;;5015569;28;20406;-69
2023/01/26 10:01:42;;;;;;;15.57;11.50;;;2.30;99.90;;;;;;5015185;28;20437;-69
2023/01/26 10:04:31;;;;;;;15.93;11.00;;;2.20;99.90;;;;;;5015520;28;20395;-69
2023/01/26 10:06:58;;;;;;;17.67;12.10;;;2.10;99.90;;;;;;5049209;28;20425;-69
2023/01/26 10:09:32;;;;;;;17.67;12.63;;;2.20;99.90;;;;;;5054618;28;20410;-69
2023/01/26 10:12:01;;;;;;;17.10;11.50;;;2.30;99.90;;;;;;5054930;28;20799;-69
2023/01/26 10:14:44;;;;;;;16.27;11.57;;;2.20;99.90;;;;;;5054157;28;20452;-69
2023/01/26 10:17:16;;;;;;;20.00;13.67;;;2.20;99.90;;;;;;5054996;28;20390;-70
2023/01/26 10:19:48;;;;;;;16.30;12.20;;;2.20;99.90;;;;;;5054605;28;20421;-71
2023/01/26 10:22:44;;;;;;;20.03;11.70;;;2.30;99.90;;;;;;5054223;28;20542;-70
2023/01/26 10:25:40;;;;;;;20.13;12.30;;;2.40;99.90;;;;;;5044613;28;20428;-70
2023/01/26 10:28:28;;;;;;;18.30;11.70;;;2.50;99.90;;;;;;5033478;28;20801;-70
2023/01/26 10:30:53;;;;;;;14.40;9.50;;;2.50;99.90;;;;;;5054536;28;20460;-69
2023/01/26 10:33:29;;;;;;;15.70;11.23;;;2.20;99.90;;;;;;5054276;28;20924;-69
2023/01/26 10:35:55;;;;;;;17.00;9.73;;;2.10;99.90;;;;;;5054627;28;20608;-70
2023/01/26 10:38:37;;;;;;;12.27;9.20;;;2.20;99.90;;;;;;5054834;28;20401;-70
2023/01/26 10:41:24;;;;;;;13.10;10.30;;;2.10;99.90;;;;;;5054891;28;20233;-69
2023/01/26 10:43:56;;;;;;;12.30;8.57;;;2.10;99.90;;;;;;5054067;28;20425;-69
2023/01/26 10:46:39;;;;;;;10.80;8.30;;;2.10;99.90;;;;;;5054296;28;20405;-70
2023/01/26 10:49:08;;;;;;;12.97;9.50;;;2.20;99.90;;;;;;5052916;28;20409;-70
2023/01/26 10:51:37;;;;;;;13.30;8.97;;;2.20;99.90;;;;;;5053784;28;20432;-70
2023/01/26 10:54:23;;;;;;;14.03;8.83;;;2.40;99.90;;;;;;5054125;28;20452;-70
2023/01/26 10:57:14;;;;;;;11.27;8.60;;;2.40;99.90;;;;;;5054020;28;20428;-69
2023/01/26 10:59:48;;;;;;;11.20;8.50;;;2.40;99.90;;;;;;5053909;28;20722;-69
2023/01/26 11:02:13;;;;;;;13.20;9.37;;;2.50;99.90;;;;;;5054505;28;20470;-70
2023/01/26 11:04:39;;;;;;;11.77;8.93;;;2.60;99.90;;;;;;5054124;28;20915;-70
2023/01/26 11:07:27;;;;;;;13.37;9.33;;;2.80;99.90;;;;;;5052081;28;20652;-70
2023/01/26 11:09:54;;;;;;;11.47;8.37;;;2.80;99.90;;;;;;5054385;28;20163;-70
2023/01/26 11:12:23;;;;;;;12.40;8.47;;;2.60;99.90;;;;;;5053707;28;20435;-70
2023/01/26 11:15:02;;;;;;;14.67;10.27;;;2.70;99.90;;;;;;5053656;28;20441;-70
2023/01/26 11:17:47;;;;;;;14.93;9.97;;;2.40;99.90;;;;;;5035868;28;20860;-70
2023/01/26 11:20:27;;;;;;;12.50;9.67;;;2.30;99.90;;;;;;5047176;28;20395;-70
2023/01/26 11:23:11;;;;;;;12.97;9.60;;;2.30;99.90;;;;;;5033846;28;20451;-70
2023/01/26 11:25:44;;;;;;;18.33;12.30;;;2.40;99.90;;;;;;5033279;28;20441;-70
2023/01/26 11:28:36;;;;;;;16.30;12.13;;;2.40;99.90;;;;;;5033755;28;20390;-73
2023/01/26 11:31:17;;;;;;;16.13;11.63;;;2.40;99.90;;;;;;5033535;28;20513;-73
2023/01/26 11:33:48;;;;;;;15.97;10.97;;;2.30;99.90;;;;;;5033692;28;20434;-72
2023/01/26 11:36:19;;;;;;;18.00;11.90;;;1.90;99.90;;;;;;5045447;28;20773;-72
2023/01/26 11:38:59;;;;;;;15.60;10.10;;;1.80;99.90;;;;;;5053542;28;20432;-72
2023/01/26 11:41:35;;;;;;;16.47;11.63;;;1.60;99.90;;;;;;5053286;28;20433;-72
2023/01/26 11:44:06;;;;;;;16.83;11.23;;;1.60;99.90;;;;;;5043908;28;20744;-73
2023/01/26 11:46:58;;;;;;;16.90;11.77;;;1.60;99.90;;;;;;4996380;28;20411;-72
2023/01/26 11:49:58;;;;;;;18.43;11.67;;;1.50;99.90;;;;;;5014099;28;20395;-72
2023/01/26 11:52:59;;;;;;;18.60;12.63;;;1.80;99.90;;;;;;5013429;28;20506;-71
2023/01/26 11:56:06;;;;;;;17.67;10.70;;;2.00;99.90;;;;;;5013633;28;20943;-73
2023/01/26 11:58:45;;;;;;;16.23;10.07;;;2.00;99.90;;;;;;5014053;28;20437;-73
2023/01/26 12:01:27;;;;;;;17.20;10.83;;;2.00;99.90;;;;;;5013644;28;20481;-71
2023/01/26 12:03:53;;;;;;;19.20;12.30;;;1.90;99.90;;;;;;5013654;28;20387;-72
2023/01/26 12:06:37;;;;;;;13.47;9.73;;;1.70;99.90;;;;;;5035048;28;20429;-70
2023/01/26 12:09:21;;;;;;;22.10;12.27;;;1.70;99.90;;;;;;5053218;28;20386;-71
2023/01/26 12:11:56;;;;;;;15.40;9.47;;;1.80;99.90;;;;;;5052633;28;20425;-72
2023/01/26 12:14:25;;;;;;;18.70;11.47;;;1.90;99.90;;;;;;5051362;28;20475;-71
2023/01/26 12:17:12;;;;;;;18.20;12.90;;;2.20;99.90;;;;;;5052782;28;20414;-69
2023/01/26 12:20:16;;;;;;;14.40;10.27;;;2.10;99.90;;;;;;5053216;28;20466;-69
2023/01/26 12:22:48;;;;;;;16.50;10.33;;;2.20;99.90;;;;;;5051901;28;20425;-69
2023/01/26 12:25:26;;;;;;;12.53;8.97;;;2.20;99.90;;;;;;5053100;28;20431;-70
2023/01/26 12:28:10;;;;;;;13.23;9.50;;;2.30;99.90;;;;;;5053002;28;20385;-70
2023/01/26 12:30:41;;;;;;;14.80;9.20;;;2.20;99.90;;;;;;5052972;28;20465;-70
2023/01/26 12:33:09;;;;;;;12.60;9.37;;;2.20;99.90;;;;;;5052728;28;20409;-71
2023/01/26 12:35:58;;;;;;;13.63;9.60;;;1.80;99.90;;;;;;5052525;28;20496;-72
2023/01/26 12:38:47;;;;;;;16.00;10.77;;;1.90;99.90;;;;;;5054956;28;20393;-71
2023/01/26 12:41:35;;;;;;;13.43;9.90;;;1.90;99.90;;;;;;5056389;28;20443;-71
2023/01/26 12:44:07;;;;;;;14.37;10.17;;;1.80;99.90;;;;;;5056437;28;20409;-71
2023/01/26 12:46:40;;;;;;;14.87;9.40;;;1.70;99.90;;;;;;5056768;28;20777;-71
2023/01/26 12:49:21;;;;;;;18.27;12.13;;;1.70;99.90;;;;;;5056757;28;20397;-71
2023/01/26 12:51:59;;;;;;;17.03;12.43;;;2.00;99.90;;;;;;5056166;28;20481;-71
2023/01/26 12:55:04;;;;;;;20.37;11.40;;;2.10;99.90;;;;;;5056404;28;20443;-71
2023/01/26 12:57:52;;;;;;;19.97;12.57;;;2.20;99.90;;;;;;4956598;29;20827;-71
2023/01/26 13:00:22;;;;;;;18.80;11.50;;;2.30;99.90;;;;;;5053693;28;20421;-71
2023/01/26 13:02:54;;;;;;;21.27;12.23;;;2.30;99.90;;;;;;5056612;28;20378;-70
2023/01/26 13:05:26;;;;;;;19.40;13.20;;;2.20;99.90;;;;;;5054601;28;21885;-70
2023/01/26 13:07:51;;;;;;;20.03;14.60;;;2.00;99.90;;;;;;5056027;28;20401;-72
2023/01/26 13:10:22;;;;;;;23.43;15.97;;;2.10;99.90;;;;;;5056382;28;20764;-70
2023/01/26 13:12:53;;;;;;;20.47;14.63;;;2.20;99.90;;;;;;5056049;28;20207;-70
2023/01/26 13:15:22;;;;;;;22.30;14.17;;;2.00;99.90;;;;;;5055130;28;20921;-71
2023/01/26 13:17:51;;;;;;;19.23;14.77;;;1.80;99.90;;;;;;5055848;28;20831;-72
2023/01/26 13:20:47;;;;;;;22.37;15.30;;;1.50;99.90;;;;;;5034951;28;20440;-73
2023/01/26 13:23:27;;;;;;;22.87;16.83;;;1.60;99.90;;;;;;5016393;28;20422;-72
2023/01/26 13:26:18;;;;;;;24.90;17.37;;;1.90;99.90;;;;;;5015840;28;20924;-71
2023/01/26 13:28:47;;;;;;;20.73;13.53;;;1.50;99.90;;;;;;5008267;28;20407;-72
2023/01/26 13:31:28;;;;;;;22.93;16.17;;;1.60;99.90;;;;;;5016114;28;20438;-71
2023/01/26 13:33:57;;;;;;;25.23;15.93;;;1.70;99.90;;;;;;5016014;28;20474;-73
2023/01/26 13:36:23;;;;;;;23.00;15.70;;;1.90;99.90;;;;;;5037342;28;20423;-73
2023/01/26 13:38:58;;;;;;;25.97;16.20;;;2.00;99.90;;;;;;5051500;28;20409;-74
2023/01/26 13:41:24;;;;;;;20.97;13.83;;;2.10;99.90;;;;;;5015730;28;20433;-74
2023/01/26 13:43:53;;;;;;;25.37;16.77;;;2.00;99.90;;;;;;5015950;28;20411;-73